sensor_id;sensor_type;location;lat;lon;timestamp;pressure;altitude;pressure_sealevel;temperature;humidity
77027;BME280;65956;52.986;17.490;2023-01-01T00:01:55;99782.48;;;13.97;69.88
77027;BME280;65956;52.986;17.490;2023-01-01T00:04:22;99795.42;;;13.98;69.72
77027;BME280;65956;52.986;17.490;2023-01-01T00:06:49;99799.83;;;13.97;69.84
77027;BME280;65956;52.986;17.490;2023-01-01T00:09:17;99799.43;;;13.97;69.86
77027;BME280;65956;52.986;17.490;2023-01-01T00:12:03;99788.88;;;13.94;70.02
77027;BME280;65956;52.986;17.490;2023-01-01T00:14:30;99793.13;;;13.91;70.03
77027;BME280;65956;52.986;17.490;2023-01-01T00:16:57;99799.09;;;13.87;70.23
77027;BME280;65956;52.986;17.490;2023-01-01T00:19:24;99809.41;;;13.86;70.26
77027;BME280;65956;52.986;17.490;2023-01-01T00:21:52;99808.70;;;13.83;70.36
77027;BME280;65956;52.986;17.490;2023-01-01T00:24:19;99813.38;;;13.78;70.47
77027;BME280;65956;52.986;17.490;2023-01-01T00:26:46;99810.91;;;13.75;70.61
77027;BME280;65956;52.986;17.490;2023-01-01T00:29:14;99817.23;;;13.75;70.46
77027;BME280;65956;52.986;17.490;2023-01-01T00:31:41;99811.45;;;13.79;70.31
77027;BME280;65956;52.986;17.490;2023-01-01T00:34:09;99804.86;;;13.80;70.36
77027;BME280;65956;52.986;17.490;2023-01-01T00:36:36;99806.39;;;13.81;70.21
77027;BME280;65956;52.986;17.490;2023-01-01T00:39:03;99807.11;;;13.81;70.17
77027;BME280;65956;52.986;17.490;2023-01-01T00:41:30;99813.91;;;13.83;70.18
77027;BME280;65956;52.986;17.490;2023-01-01T00:43:57;99809.83;;;13.83;70.07
77027;BME280;65956;52.986;17.490;2023-01-01T00:46:25;99805.04;;;13.82;70.04
77027;BME280;65956;52.986;17.490;2023-01-01T00:48:52;99806.70;;;13.83;70.05
77027;BME280;65956;52.986;17.490;2023-01-01T00:51:19;99801.59;;;13.80;70.23
77027;BME280;65956;52.986;17.490;2023-01-01T00:53:46;99799.67;;;13.81;70.00
77027;BME280;65956;52.986;17.490;2023-01-01T00:56:13;99798.88;;;13.80;70.09
77027;BME280;65956;52.986;17.490;2023-01-01T00:58:41;99792.48;;;13.75;70.13
77027;BME280;65956;52.986;17.490;2023-01-01T01:01:08;99793.38;;;13.75;70.15
77027;BME280;65956;52.986;17.490;2023-01-01T01:03:37;99801.45;;;13.76;70.11
77027;BME280;65956;52.986;17.490;2023-01-01T01:08:33;99792.35;;;13.74;70.14
77027;BME280;65956;52.986;17.490;2023-01-01T01:11:06;99799.86;;;13.73;70.18
77027;BME280;65956;52.986;17.490;2023-01-01T01:13:34;99806.83;;;13.73;70.07
77027;BME280;65956;52.986;17.490;2023-01-01T01:16:09;99802.50;;;13.77;69.87
77027;BME280;65956;52.986;17.490;2023-01-01T01:18:37;99808.88;;;13.79;69.82
77027;BME280;65956;52.986;17.490;2023-01-01T01:21:04;99808.88;;;13.78;69.73
77027;BME280;65956;52.986;17.490;2023-01-01T01:23:32;99816.80;;;13.80;69.63
77027;BME280;65956;52.986;17.490;2023-01-01T01:26:11;99818.41;;;13.78;69.67
77027;BME280;65956;52.986;17.490;2023-01-01T01:28:39;99815.46;;;13.76;69.61
77027;BME280;65956;52.986;17.490;2023-01-01T01:31:06;99811.05;;;13.78;69.54
77027;BME280;65956;52.986;17.490;2023-01-01T01:33:33;99828.41;;;13.78;69.42
77027;BME280;65956;52.986;17.490;2023-01-01T01:36:03;99818.58;;;13.78;69.37
77027;BME280;65956;52.986;17.490;2023-01-01T01:38:31;99821.29;;;13.77;69.33
77027;BME280;65956;52.986;17.490;2023-01-01T01:40:58;99827.62;;;13.74;69.35
77027;BME280;65956;52.986;17.490;2023-01-01T01:46:24;99832.42;;;13.73;69.22
77027;BME280;65956;52.986;17.490;2023-01-01T01:48:54;99825.88;;;13.71;69.32
77027;BME280;65956;52.986;17.490;2023-01-01T01:51:27;99825.23;;;13.69;69.29
77027;BME280;65956;52.986;17.490;2023-01-01T01:53:59;99821.81;;;13.66;69.39
77027;BME280;65956;52.986;17.490;2023-01-01T01:56:53;99822.95;;;13.62;69.41
77027;BME280;65956;52.986;17.490;2023-01-01T01:59:24;99824.70;;;13.63;69.26
77027;BME280;65956;52.986;17.490;2023-01-01T02:01:53;99831.66;;;13.63;69.27
77027;BME280;65956;52.986;17.490;2023-01-01T02:04:20;99830.23;;;13.57;69.31
77027;BME280;65956;52.986;17.490;2023-01-01T02:06:48;99833.84;;;13.55;69.33
77027;BME280;65956;52.986;17.490;2023-01-01T02:09:16;99831.20;;;13.56;69.23
77027;BME280;65956;52.986;17.490;2023-01-01T02:11:43;99833.05;;;13.55;69.17
77027;BME280;65956;52.986;17.490;2023-01-01T02:14:11;99833.46;;;13.52;69.23
77027;BME280;65956;52.986;17.490;2023-01-01T02:16:44;99838.17;;;13.49;69.21
77027;BME280;65956;52.986;17.490;2023-01-01T02:19:34;99841.14;;;13.49;69.18
77027;BME280;65956;52.986;17.490;2023-01-01T02:25:21;99842.83;;;13.48;68.99
77027;BME280;65956;52.986;17.490;2023-01-01T02:30:51;99848.90;;;13.46;68.96
77027;BME280;65956;52.986;17.490;2023-01-01T02:33:23;99848.02;;;13.42;69.10
77027;BME280;65956;52.986;17.490;2023-01-01T02:35:58;99846.75;;;13.40;69.12
77027;BME280;65956;52.986;17.490;2023-01-01T02:38:36;99846.59;;;13.40;69.06
77027;BME280;65956;52.986;17.490;2023-01-01T02:41:11;99843.48;;;13.39;69.01
77027;BME280;65956;52.986;17.490;2023-01-01T02:43:41;99841.64;;;13.38;68.88
77027;BME280;65956;52.986;17.490;2023-01-01T02:46:09;99839.80;;;13.39;68.85
77027;BME280;65956;52.986;17.490;2023-01-01T02:48:49;99839.23;;;13.39;68.67
77027;BME280;65956;52.986;17.490;2023-01-01T02:57:10;99827.16;;;13.40;68.27
77027;BME280;65956;52.986;17.490;2023-01-01T03:00:01;99834.27;;;13.42;68.10
77027;BME280;65956;52.986;17.490;2023-01-01T03:05:59;99834.84;;;13.40;67.78
77027;BME280;65956;52.986;17.490;2023-01-01T03:09:03;99831.33;;;13.36;67.82
77027;BME280;65956;52.986;17.490;2023-01-01T03:11:51;99829.25;;;13.34;67.78
77027;BME280;65956;52.986;17.490;2023-01-01T03:14:27;99841.08;;;13.36;67.44
77027;BME280;65956;52.986;17.490;2023-01-01T03:17:03;99843.96;;;13.34;67.45
77027;BME280;65956;52.986;17.490;2023-01-01T03:19:37;99850.20;;;13.32;67.31
77027;BME280;65956;52.986;17.490;2023-01-01T03:22:15;99845.42;;;13.30;67.38
77027;BME280;65956;52.986;17.490;2023-01-01T03:24:47;99847.58;;;13.29;67.23
77027;BME280;65956;52.986;17.490;2023-01-01T03:27:27;99849.65;;;13.25;67.41
77027;BME280;65956;52.986;17.490;2023-01-01T03:29:59;99857.17;;;13.23;67.40
77027;BME280;65956;52.986;17.490;2023-01-01T03:32:37;99852.78;;;13.18;67.54
77027;BME280;65956;52.986;17.490;2023-01-01T03:35:33;99862.14;;;13.18;67.60
77027;BME280;65956;52.986;17.490;2023-01-01T03:38:05;99861.41;;;13.18;67.47
77027;BME280;65956;52.986;17.490;2023-01-01T03:40:36;99855.27;;;13.18;67.36
77027;BME280;65956;52.986;17.490;2023-01-01T03:43:20;99851.02;;;13.20;67.20
77027;BME280;65956;52.986;17.490;2023-01-01T03:45:50;99863.97;;;13.20;67.04
77027;BME280;65956;52.986;17.490;2023-01-01T03:48:19;99852.16;;;13.18;67.19
77027;BME280;65956;52.986;17.490;2023-01-01T03:51:08;99859.26;;;13.19;67.16
77027;BME280;65956;52.986;17.490;2023-01-01T03:53:41;99858.14;;;13.19;67.14
77027;BME280;65956;52.986;17.490;2023-01-01T03:56:27;99859.49;;;13.14;67.33
77027;BME280;65956;52.986;17.490;2023-01-01T04:02:07;99861.16;;;13.04;67.58
77027;BME280;65956;52.986;17.490;2023-01-01T04:04:37;99858.45;;;13.04;67.43
77027;BME280;65956;52.986;17.490;2023-01-01T04:07:04;99852.36;;;12.99;67.50
77027;BME280;65956;52.986;17.490;2023-01-01T04:09:34;99852.92;;;12.94;67.73
77027;BME280;65956;52.986;17.490;2023-01-01T04:12:03;99858.92;;;12.92;67.63
77027;BME280;65956;52.986;17.490;2023-01-01T04:14:37;99884.71;;;12.92;67.55
77027;BME280;65956;52.986;17.490;2023-01-01T04:17:06;99898.08;;;12.94;67.43
77027;BME280;65956;52.986;17.490;2023-01-01T04:19:34;99901.73;;;12.92;67.42
77027;BME280;65956;52.986;17.490;2023-01-01T04:22:02;99905.34;;;12.91;67.34
77027;BME280;65956;52.986;17.490;2023-01-01T04:24:30;99906.45;;;12.90;67.29
77027;BME280;65956;52.986;17.490;2023-01-01T04:26:57;99899.27;;;12.90;67.23
77027;BME280;65956;52.986;17.490;2023-01-01T04:29:25;99905.34;;;12.88;67.20
77027;BME280;65956;52.986;17.490;2023-01-01T04:31:52;99912.36;;;12.85;67.29
77027;BME280;65956;52.986;17.490;2023-01-01T04:34:19;99908.12;;;12.83;67.26
77027;BME280;65956;52.986;17.490;2023-01-01T04:36:47;99902.67;;;12.84;67.03
77027;BME280;65956;52.986;17.490;2023-01-01T04:39:14;99907.64;;;12.84;67.02
77027;BME280;65956;52.986;17.490;2023-01-01T04:41:41;99910.52;;;12.83;67.00
77027;BME280;65956;52.986;17.490;2023-01-01T04:44:08;99904.91;;;12.81;66.80
77027;BME280;65956;52.986;17.490;2023-01-01T04:46:35;99906.21;;;12.82;66.77
77027;BME280;65956;52.986;17.490;2023-01-01T04:49:02;99908.04;;;12.82;66.70
77027;BME280;65956;52.986;17.490;2023-01-01T04:51:30;99911.30;;;12.80;66.58
77027;BME280;65956;52.986;17.490;2023-01-01T04:53:58;99915.86;;;12.79;66.61
77027;BME280;65956;52.986;17.490;2023-01-01T04:56:25;99917.45;;;12.78;66.55
77027;BME280;65956;52.986;17.490;2023-01-01T04:58:53;99918.10;;;12.77;66.60
77027;BME280;65956;52.986;17.490;2023-01-01T05:01:23;99908.03;;;12.77;66.46
77027;BME280;65956;52.986;17.490;2023-01-01T05:03:52;99909.61;;;12.72;66.68
77027;BME280;65956;52.986;17.490;2023-01-01T05:06:20;99919.20;;;12.67;66.71
77027;BME280;65956;52.986;17.490;2023-01-01T05:08:49;99908.33;;;12.64;66.61
77027;BME280;65956;52.986;17.490;2023-01-01T05:11:20;99902.73;;;12.63;66.63
77027;BME280;65956;52.986;17.490;2023-01-01T05:13:50;99900.24;;;12.59;66.67
77027;BME280;65956;52.986;17.490;2023-01-01T05:16:20;99910.09;;;12.63;66.35
77027;BME280;65956;52.986;17.490;2023-01-01T05:18:48;99922.39;;;12.68;66.19
77027;BME280;65956;52.986;17.490;2023-01-01T05:21:22;99939.09;;;12.66;66.25
77027;BME280;65956;52.986;17.490;2023-01-01T05:23:57;99949.92;;;12.63;66.13
77027;BME280;65956;52.986;17.490;2023-01-01T05:26:31;99957.44;;;12.62;66.12
77027;BME280;65956;52.986;17.490;2023-01-01T05:29:00;99963.20;;;12.64;65.78
77027;BME280;65956;52.986;17.490;2023-01-01T05:31:30;99969.76;;;12.68;65.65
77027;BME280;65956;52.986;17.490;2023-01-01T05:33:58;99967.13;;;12.68;65.44
77027;BME280;65956;52.986;17.490;2023-01-01T05:36:31;99970.33;;;12.69;65.30
77027;BME280;65956;52.986;17.490;2023-01-01T05:38:59;99966.17;;;12.74;64.95
77027;BME280;65956;52.986;17.490;2023-01-01T05:41:26;99972.34;;;12.79;64.67
77027;BME280;65956;52.986;17.490;2023-01-01T05:43:53;99968.74;;;12.80;64.57
77027;BME280;65956;52.986;17.490;2023-01-01T05:46:23;99968.92;;;12.83;64.42
77027;BME280;65956;52.986;17.490;2023-01-01T05:48:52;99960.45;;;12.81;64.41
77027;BME280;65956;52.986;17.490;2023-01-01T05:51:22;99966.11;;;12.80;64.37
77027;BME280;65956;52.986;17.490;2023-01-01T05:53:54;99966.99;;;12.79;64.33
77027;BME280;65956;52.986;17.490;2023-01-01T05:56:22;99965.95;;;12.81;64.14
77027;BME280;65956;52.986;17.490;2023-01-01T05:58:49;99958.29;;;12.83;63.97
77027;BME280;65956;52.986;17.490;2023-01-01T06:01:21;99956.13;;;12.84;63.84
77027;BME280;65956;52.986;17.490;2023-01-01T06:03:49;99957.42;;;12.86;63.65
77027;BME280;65956;52.986;17.490;2023-01-01T06:06:19;99955.11;;;12.92;63.40
77027;BME280;65956;52.986;17.490;2023-01-01T06:08:52;99962.79;;;12.94;63.40
77027;BME280;65956;52.986;17.490;2023-01-01T06:11:20;99966.39;;;12.93;63.30
77027;BME280;65956;52.986;17.490;2023-01-01T06:13:54;99975.25;;;12.91;63.40
77027;BME280;65956;52.986;17.490;2023-01-01T06:16:23;99976.36;;;12.92;63.26
77027;BME280;65956;52.986;17.490;2023-01-01T06:18:50;99981.10;;;12.95;63.18
77027;BME280;65956;52.986;17.490;2023-01-01T06:21:20;99985.58;;;13.00;63.18
77027;BME280;65956;52.986;17.490;2023-01-01T06:23:48;99981.73;;;12.98;63.10
77027;BME280;65956;52.986;17.490;2023-01-01T06:26:21;99978.45;;;12.98;63.18
77027;BME280;65956;52.986;17.490;2023-01-01T06:28:48;99975.66;;;12.97;63.34
77027;BME280;65956;52.986;17.490;2023-01-01T06:31:18;99979.17;;;12.93;63.37
77027;BME280;65956;52.986;17.490;2023-01-01T06:33:46;99981.33;;;12.92;63.43
77027;BME280;65956;52.986;17.490;2023-01-01T06:36:16;99987.72;;;12.93;63.42
77027;BME280;65956;52.986;17.490;2023-01-01T06:38:46;99995.30;;;12.93;63.47
77027;BME280;65956;52.986;17.490;2023-01-01T06:41:19;100000.52;;;12.95;63.46
77027;BME280;65956;52.986;17.490;2023-01-01T06:43:48;99998.36;;;12.99;63.27
77027;BME280;65956;52.986;17.490;2023-01-01T06:48:53;99991.58;;;13.05;63.04
77027;BME280;65956;52.986;17.490;2023-01-01T06:51:23;99995.02;;;13.09;62.91
77027;BME280;65956;52.986;17.490;2023-01-01T06:53:52;99998.66;;;13.15;62.72
77027;BME280;65956;52.986;17.490;2023-01-01T06:56:20;100000.75;;;13.18;62.70
77027;BME280;65956;52.986;17.490;2023-01-01T06:58:47;100005.86;;;13.21;62.72
77027;BME280;65956;52.986;17.490;2023-01-01T07:01:19;100007.71;;;13.25;62.54
77027;BME280;65956;52.986;17.490;2023-01-01T07:03:55;100019.31;;;13.30;62.51
77027;BME280;65956;52.986;17.490;2023-01-01T07:06:23;100032.11;;;13.32;62.41
77027;BME280;65956;52.986;17.490;2023-01-01T07:08:51;100024.50;;;13.36;62.20
77027;BME280;65956;52.986;17.490;2023-01-01T07:11:19;100024.04;;;13.38;62.36
77027;BME280;65956;52.986;17.490;2023-01-01T07:13:46;100028.44;;;13.36;62.49
77027;BME280;65956;52.986;17.490;2023-01-01T07:16:14;100034.19;;;13.34;62.56
77027;BME280;65956;52.986;17.490;2023-01-01T07:18:41;100034.02;;;13.37;62.40
77027;BME280;65956;52.986;17.490;2023-01-01T07:21:32;100036.50;;;13.37;62.53
77027;BME280;65956;52.986;17.490;2023-01-01T07:24:03;100045.23;;;13.38;62.33
77027;BME280;65956;52.986;17.490;2023-01-01T07:26:32;100038.59;;;13.42;62.10
77027;BME280;65956;52.986;17.490;2023-01-01T07:29:01;100047.31;;;13.42;62.11
77027;BME280;65956;52.986;17.490;2023-01-01T07:31:29;100049.79;;;13.42;62.03
77027;BME280;65956;52.986;17.490;2023-01-01T07:33:56;100047.63;;;13.41;62.11
77027;BME280;65956;52.986;17.490;2023-01-01T07:36:23;100056.33;;;13.37;62.34
77027;BME280;65956;52.986;17.490;2023-01-01T07:38:50;100056.25;;;13.33;62.38
77027;BME280;65956;52.986;17.490;2023-01-01T07:41:17;100058.98;;;13.30;62.56
77027;BME280;65956;52.986;17.490;2023-01-01T07:43:44;100059.85;;;13.28;62.37
77027;BME280;65956;52.986;17.490;2023-01-01T07:46:12;100061.92;;;13.31;62.26
77027;BME280;65956;52.986;17.490;2023-01-01T07:48:42;100070.41;;;13.34;62.13
77027;BME280;65956;52.986;17.490;2023-01-01T07:51:10;100073.61;;;13.36;61.95
77027;BME280;65956;52.986;17.490;2023-01-01T07:53:37;100073.45;;;13.40;61.83
77027;BME280;65956;52.986;17.490;2023-01-01T07:56:05;100081.14;;;13.41;61.83
77027;BME280;65956;52.986;17.490;2023-01-01T07:58:32;100080.41;;;13.42;61.87
77027;BME280;65956;52.986;17.490;2023-01-01T08:00:59;100080.02;;;13.44;61.81
77027;BME280;65956;52.986;17.490;2023-01-01T08:03:26;100080.51;;;13.46;61.78
77027;BME280;65956;52.986;17.490;2023-01-01T08:05:53;100081.70;;;13.50;61.49
77027;BME280;65956;52.986;17.490;2023-01-01T08:08:21;100076.84;;;13.55;61.20
77027;BME280;65956;52.986;17.490;2023-01-01T08:10:48;100081.65;;;13.66;60.72
77027;BME280;65956;52.986;17.490;2023-01-01T08:13:15;100082.36;;;13.72;60.63
77027;BME280;65956;52.986;17.490;2023-01-01T08:15:42;100079.65;;;13.77;60.31
77027;BME280;65956;52.986;17.490;2023-01-01T08:18:09;100078.45;;;13.83;60.06
77027;BME280;65956;52.986;17.490;2023-01-01T08:20:37;100082.21;;;13.88;59.81
77027;BME280;65956;52.986;17.490;2023-01-01T08:23:04;100086.62;;;13.94;59.59
77027;BME280;65956;52.986;17.490;2023-01-01T08:25:31;100087.58;;;13.97;59.54
77027;BME280;65956;52.986;17.490;2023-01-01T08:27:58;100087.33;;;14.01;59.32
77027;BME280;65956;52.986;17.490;2023-01-01T08:30:25;100083.97;;;14.02;59.37
77027;BME280;65956;52.986;17.490;2023-01-01T08:32:52;100081.24;;;14.01;59.62
77027;BME280;65956;52.986;17.490;2023-01-01T08:35:19;100080.36;;;13.97;59.84
77027;BME280;65956;52.986;17.490;2023-01-01T08:37:47;100081.58;;;13.93;59.78
77027;BME280;65956;52.986;17.490;2023-01-01T08:40:14;100088.70;;;13.93;59.66
77027;BME280;65956;52.986;17.490;2023-01-01T08:42:41;100094.63;;;13.95;59.69
77027;BME280;65956;52.986;17.490;2023-01-01T08:45:09;100094.06;;;13.94;59.70
77027;BME280;65956;52.986;17.490;2023-01-01T08:47:36;100092.23;;;13.96;59.57
77027;BME280;65956;52.986;17.490;2023-01-01T08:50:04;100098.14;;;13.99;59.64
77027;BME280;65956;52.986;17.490;2023-01-01T08:52:31;100100.14;;;14.04;59.20
77027;BME280;65956;52.986;17.490;2023-01-01T08:55:00;100100.05;;;14.13;58.61
77027;BME280;65956;52.986;17.490;2023-01-01T08:57:30;100094.70;;;14.21;58.34
77027;BME280;65956;52.986;17.490;2023-01-01T08:59:57;100095.95;;;14.28;58.09
77027;BME280;65956;52.986;17.490;2023-01-01T09:02:25;100099.65;;;14.33;57.82
77027;BME280;65956;52.986;17.490;2023-01-01T09:04:52;100099.96;;;14.41;57.22
77027;BME280;65956;52.986;17.490;2023-01-01T09:07:20;100097.31;;;14.50;56.95
77027;BME280;65956;52.986;17.490;2023-01-01T09:09:47;100091.67;;;14.61;56.27
77027;BME280;65956;52.986;17.490;2023-01-01T09:12:15;100095.01;;;14.67;56.13
77027;BME280;65956;52.986;17.490;2023-01-01T09:14:46;100103.89;;;14.71;55.88
77027;BME280;65956;52.986;17.490;2023-01-01T09:17:13;100099.80;;;14.76;55.68
77027;BME280;65956;52.986;17.490;2023-01-01T09:19:41;100087.36;;;14.79;55.41
77027;BME280;65956;52.986;17.490;2023-01-01T09:22:09;100096.48;;;14.84;55.45
77027;BME280;65956;52.986;17.490;2023-01-01T09:24:37;100091.59;;;14.82;55.69
77027;BME280;65956;52.986;17.490;2023-01-01T09:27:04;100094.89;;;14.81;55.77
77027;BME280;65956;52.986;17.490;2023-01-01T09:29:31;100095.21;;;14.80;55.81
77027;BME280;65956;52.986;17.490;2023-01-01T09:31:59;100093.44;;;14.80;55.68
77027;BME280;65956;52.986;17.490;2023-01-01T09:34:26;100095.45;;;14.81;55.83
77027;BME280;65956;52.986;17.490;2023-01-01T09:36:53;100098.58;;;14.80;55.73
77027;BME280;65956;52.986;17.490;2023-01-01T09:39:21;100087.75;;;14.81;55.75
77027;BME280;65956;52.986;17.490;2023-01-01T09:42:14;100089.67;;;14.83;55.69
77027;BME280;65956;52.986;17.490;2023-01-01T09:44:59;100100.98;;;14.81;55.84
77027;BME280;65956;52.986;17.490;2023-01-01T09:50:04;100108.04;;;14.79;55.98
77027;BME280;65956;52.986;17.490;2023-01-01T09:52:50;100121.20;;;14.77;56.06
77027;BME280;65956;52.986;17.490;2023-01-01T09:55:59;100128.09;;;14.77;55.84
77027;BME280;65956;52.986;17.490;2023-01-01T09:58:35;100132.16;;;14.79;55.78
77027;BME280;65956;52.986;17.490;2023-01-01T10:04:16;100134.73;;;14.79;55.94
77027;BME280;65956;52.986;17.490;2023-01-01T10:12:11;100134.58;;;14.72;56.02
77027;BME280;65956;52.986;17.490;2023-01-01T10:14:46;100142.45;;;14.69;56.33
77027;BME280;65956;52.986;17.490;2023-01-01T10:17:23;100144.06;;;14.67;56.56
77027;BME280;65956;52.986;17.490;2023-01-01T10:19:58;100142.05;;;14.62;56.56
77027;BME280;65956;52.986;17.490;2023-01-01T10:22:31;100140.79;;;14.61;56.70
77027;BME280;65956;52.986;17.490;2023-01-01T10:25:19;100139.74;;;14.60;57.00
77027;BME280;65956;52.986;17.490;2023-01-01T10:27:58;100135.11;;;14.56;57.02
77027;BME280;65956;52.986;17.490;2023-01-01T10:30:27;100140.96;;;14.56;57.01
77027;BME280;65956;52.986;17.490;2023-01-01T10:32:56;100139.12;;;14.54;57.14
77027;BME280;65956;52.986;17.490;2023-01-01T10:35:38;100127.42;;;14.54;57.22
77027;BME280;65956;52.986;17.490;2023-01-01T10:38:06;100132.14;;;14.55;57.31
77027;BME280;65956;52.986;17.490;2023-01-01T10:40:33;100132.23;;;14.57;57.30
77027;BME280;65956;52.986;17.490;2023-01-01T10:43:01;100137.02;;;14.57;57.43
77027;BME280;65956;52.986;17.490;2023-01-01T10:45:40;100137.59;;;14.58;57.38
77027;BME280;65956;52.986;17.490;2023-01-01T10:48:24;100132.14;;;14.58;57.47
77027;BME280;65956;52.986;17.490;2023-01-01T10:50:55;100139.91;;;14.55;57.46
77027;BME280;65956;52.986;17.490;2023-01-01T10:56:14;100137.42;;;14.59;57.35
77027;BME280;65956;52.986;17.490;2023-01-01T10:58:45;100144.71;;;14.62;57.32
77027;BME280;65956;52.986;17.490;2023-01-01T11:09:18;100146.55;;;14.62;57.44
77027;BME280;65956;52.986;17.490;2023-01-01T11:11:53;100138.54;;;14.65;57.31
77027;BME280;65956;52.986;17.490;2023-01-01T11:14:26;100134.20;;;14.66;57.30
77027;BME280;65956;52.986;17.490;2023-01-01T11:16:55;100138.13;;;14.70;57.20
77027;BME280;65956;52.986;17.490;2023-01-01T11:19:27;100140.67;;;14.74;56.99
77027;BME280;65956;52.986;17.490;2023-01-01T11:21:56;100136.66;;;14.78;56.94
77027;BME280;65956;52.986;17.490;2023-01-01T11:24:27;100138.58;;;14.82;56.91
77027;BME280;65956;52.986;17.490;2023-01-01T11:27:21;100137.27;;;14.85;56.87
77027;BME280;65956;52.986;17.490;2023-01-01T11:29:50;100145.19;;;14.92;56.71
77027;BME280;65956;52.986;17.490;2023-01-01T11:32:33;100142.61;;;14.96;56.53
77027;BME280;65956;52.986;17.490;2023-01-01T11:35:05;100146.36;;;14.99;56.53
77027;BME280;65956;52.986;17.490;2023-01-01T11:37:36;100157.35;;;14.99;56.38
77027;BME280;65956;52.986;17.490;2023-01-01T11:40:15;100165.61;;;14.98;56.91
77027;BME280;65956;52.986;17.490;2023-01-01T11:42:47;100164.73;;;14.98;56.99
77027;BME280;65956;52.986;17.490;2023-01-01T11:45:26;100169.21;;;14.99;57.05
77027;BME280;65956;52.986;17.490;2023-01-01T11:48:00;100168.49;;;15.00;57.02
77027;BME280;65956;52.986;17.490;2023-01-01T11:50:32;100164.51;;;14.95;57.08
77027;BME280;65956;52.986;17.490;2023-01-01T11:59:27;100180.65;;;14.82;57.72
77027;BME280;65956;52.986;17.490;2023-01-01T12:06:55;100187.69;;;14.85;57.75
77027;BME280;65956;52.986;17.490;2023-01-01T12:09:29;100196.84;;;14.87;57.72
77027;BME280;65956;52.986;17.490;2023-01-01T12:12:04;100208.46;;;14.83;58.01
77027;BME280;65956;52.986;17.490;2023-01-01T12:14:45;100214.73;;;14.76;58.15
77027;BME280;65956;52.986;17.490;2023-01-01T12:17:38;100209.67;;;14.71;58.22
77027;BME280;65956;52.986;17.490;2023-01-01T12:20:25;100207.84;;;14.69;58.06
77027;BME280;65956;52.986;17.490;2023-01-01T12:22:54;100203.98;;;14.68;58.40
77027;BME280;65956;52.986;17.490;2023-01-01T12:25:22;100204.63;;;14.69;58.35
77027;BME280;65956;52.986;17.490;2023-01-01T12:28:35;100207.99;;;14.69;58.48
77027;BME280;65956;52.986;17.490;2023-01-01T12:33:38;100206.34;;;14.66;58.81
77027;BME280;65956;52.986;17.490;2023-01-01T12:36:36;100213.86;;;14.62;59.00
77027;BME280;65956;52.986;17.490;2023-01-01T12:40:05;100211.38;;;14.59;59.22
77027;BME280;65956;52.986;17.490;2023-01-01T12:43:02;100197.20;;;14.53;59.48
77027;BME280;65956;52.986;17.490;2023-01-01T12:48:49;100199.29;;;14.45;59.75
77027;BME280;65956;52.986;17.490;2023-01-01T13:00:02;100233.89;;;14.52;59.92
77027;BME280;65956;52.986;17.490;2023-01-01T13:02:33;100226.29;;;14.53;60.10
77027;BME280;65956;52.986;17.490;2023-01-01T13:05:14;100226.93;;;14.52;60.08
77027;BME280;65956;52.986;17.490;2023-01-01T13:07:47;100242.63;;;14.54;60.22
77027;BME280;65956;52.986;17.490;2023-01-01T13:10:23;100243.27;;;14.54;60.11
77027;BME280;65956;52.986;17.490;2023-01-01T13:12:53;100238.05;;;14.56;60.11
77027;BME280;65956;52.986;17.490;2023-01-01T13:20:54;100250.16;;;14.49;60.53
77027;BME280;65956;52.986;17.490;2023-01-01T13:35:00;100259.16;;;14.20;61.35
77027;BME280;65956;52.986;17.490;2023-01-01T13:37:40;100275.40;;;14.14;61.57
77027;BME280;65956;52.986;17.490;2023-01-01T13:42:42;100278.27;;;14.06;62.01
77027;BME280;65956;52.986;17.490;2023-01-01T13:45:31;100279.80;;;14.05;61.99
77027;BME280;65956;52.986;17.490;2023-01-01T13:50:49;100283.30;;;14.03;62.12
77027;BME280;65956;52.986;17.490;2023-01-01T14:05:01;100278.70;;;13.87;62.87
77027;BME280;65956;52.986;17.490;2023-01-01T14:07:44;100276.35;;;13.81;63.05
77027;BME280;65956;52.986;17.490;2023-01-01T14:10:20;100284.91;;;13.81;63.15
77027;BME280;65956;52.986;17.490;2023-01-01T14:12:48;100296.67;;;13.79;63.20
77027;BME280;65956;52.986;17.490;2023-01-01T14:15:26;100294.84;;;13.79;63.24
77027;BME280;65956;52.986;17.490;2023-01-01T14:17:56;100292.34;;;13.77;63.11
77027;BME280;65956;52.986;17.490;2023-01-01T14:25:53;100304.58;;;13.76;62.76
77027;BME280;65956;52.986;17.490;2023-01-01T14:28:26;100310.50;;;13.76;62.72
77027;BME280;65956;52.986;17.490;2023-01-01T14:30:55;100308.67;;;13.75;62.65
77027;BME280;65956;52.986;17.490;2023-01-01T14:33:27;100317.63;;;13.74;62.60
77027;BME280;65956;52.986;17.490;2023-01-01T14:36:02;100322.67;;;13.74;62.49
77027;BME280;65956;52.986;17.490;2023-01-01T14:38:33;100329.38;;;13.74;62.66
77027;BME280;65956;52.986;17.490;2023-01-01T14:41:15;100344.83;;;13.73;62.79
77027;BME280;65956;52.986;17.490;2023-01-01T14:43:46;100346.48;;;13.69;63.07
77027;BME280;65956;52.986;17.490;2023-01-01T14:46:18;100348.85;;;13.62;63.28
77027;BME280;65956;52.986;17.490;2023-01-01T14:48:52;100357.61;;;13.58;63.43
77027;BME280;65956;52.986;17.490;2023-01-01T14:51:25;100358.47;;;13.52;63.42
77027;BME280;65956;52.986;17.490;2023-01-01T14:53:55;100366.45;;;13.48;63.60
77027;BME280;65956;52.986;17.490;2023-01-01T14:56:34;100379.85;;;13.43;63.74
77027;BME280;65956;52.986;17.490;2023-01-01T15:02:20;100386.25;;;13.31;64.00
77027;BME280;65956;52.986;17.490;2023-01-01T15:04:47;100400.43;;;13.26;64.12
77027;BME280;65956;52.986;17.490;2023-01-01T15:07:24;100404.59;;;13.15;64.40